Time;durP1;ratioP1;P1;durP2;ratioP2;P2;SDS_P1;SDS_P2;PMS_P1;PMS_P2;Temp;Humidity;BMP_temperature;BMP_pressure;BME280_temperature;BME280_humidity;BME280_pressure;Samples;Min_cycle;Max_cycle;Signal;HPM_P1;HPM_P2
2021/03/20 00:00:57;;;;;;;19.00;9.48;;;-2.50;99.90;;;;;;8328916;28;20499;-66
2021/03/20 00:04:57;;;;;;;27.45;13.50;;;-2.50;99.90;;;;;;8328041;28;20495;-66
2021/03/20 00:08:59;;;;;;;18.55;9.38;;;-2.60;99.90;;;;;;8327783;28;20044;-66
2021/03/20 00:13:00;;;;;;;21.35;10.50;;;-2.60;99.90;;;;;;8327929;28;20087;-66
2021/03/20 00:17:01;;;;;;;21.50;9.57;;;-2.60;99.90;;;;;;8310443;28;20041;-66
2021/03/20 00:21:02;;;;;;;17.73;9.48;;;-2.60;99.90;;;;;;8335654;28;20025;-66
2021/03/20 00:25:04;;;;;;;18.63;9.45;;;-2.50;99.90;;;;;;8331511;28;20033;-66
2021/03/20 00:29:06;;;;;;;20.77;8.93;;;-2.50;99.90;;;;;;8328408;28;20025;-66
2021/03/20 00:33:07;;;;;;;18.98;9.13;;;-2.60;99.90;;;;;;8327921;28;20108;-66
2021/03/20 00:37:08;;;;;;;6.70;2.25;;;-2.30;99.90;;;;;;8310327;28;20025;-65
2021/03/20 00:41:10;;;;;;;13.43;6.70;;;-2.20;99.90;;;;;;8326892;28;20095;-65
2021/03/20 00:45:13;;;;;;;16.35;8.25;;;-2.30;99.90;;;;;;8327429;28;20082;-65
2021/03/20 00:49:13;;;;;;;19.70;8.43;;;-2.50;99.90;;;;;;8326721;28;20371;-65
2021/03/20 00:53:14;;;;;;;20.85;8.70;;;-2.50;99.90;;;;;;8326950;28;20032;-66
2021/03/20 00:57:15;;;;;;;16.48;9.32;;;-2.80;99.90;;;;;;8327164;28;20039;-66
2021/03/20 01:01:19;;;;;;;17.88;9.13;;;-3.00;99.90;;;;;;8326851;28;20033;-66
2021/03/20 01:05:21;;;;;;;16.08;8.30;;;-3.10;99.90;;;;;;8327086;28;20040;-66
2021/03/20 01:09:21;;;;;;;14.55;7.85;;;-3.00;99.90;;;;;;8309524;28;20072;-65
2021/03/20 01:13:22;;;;;;;19.45;9.63;;;-2.60;99.90;;;;;;8326824;28;20488;-65
2021/03/20 01:17:23;;;;;;;18.42;9.68;;;-2.50;99.90;;;;;;8325073;28;20033;-65
2021/03/20 01:21:24;;;;;;;17.23;7.78;;;-2.60;99.90;;;;;;8327854;28;20029;-65
2021/03/20 01:25:25;;;;;;;17.50;9.57;;;-2.70;99.90;;;;;;8325056;28;20037;-66
2021/03/20 01:29:26;;;;;;;16.75;8.63;;;-2.90;99.90;;;;;;8326012;28;20029;-65
2021/03/20 01:33:28;;;;;;;19.63;8.77;;;-3.10;99.90;;;;;;8326640;28;20029;-65
2021/03/20 01:37:28;;;;;;;18.60;9.27;;;-2.90;99.90;;;;;;8327076;28;20036;-65
2021/03/20 01:41:29;;;;;;;18.77;9.05;;;-3.20;99.90;;;;;;8327009;28;20022;-66
2021/03/20 01:45:33;;;;;;;15.15;7.57;;;-3.40;99.90;;;;;;8309012;28;20438;-65
2021/03/20 01:49:46;;;;;;;13.43;6.18;;;-2.90;99.90;;;;;;8326451;28;20045;-65
2021/03/20 01:53:53;;;;;;;7.47;4.07;;;-2.80;99.90;;;;;;8361567;28;20078;-65
2021/03/20 01:57:58;;;;;;;12.68;4.82;;;-2.70;99.90;;;;;;8365902;28;20121;-65
2021/03/20 02:01:59;;;;;;;9.50;5.53;;;-2.70;99.90;;;;;;8365948;28;20025;-65
2021/03/20 02:06:01;;;;;;;2.00;1.83;;;-2.70;99.90;;;;;;8365528;28;20017;-65
2021/03/20 02:10:04;;;;;;;15.27;6.70;;;-2.90;99.90;;;;;;8365551;28;20032;-65
2021/03/20 02:14:31;;;;;;;10.43;5.65;;;-3.00;99.90;;;;;;8347196;28;20056;-65
2021/03/20 02:18:40;;;;;;;13.00;5.22;;;-3.00;99.90;;;;;;8346740;28;20067;-65
2021/03/20 02:22:49;;;;;;;15.27;7.63;;;-3.10;99.90;;;;;;8363545;28;20100;-65
2021/03/20 02:27:26;;;;;;;14.30;7.45;;;-3.50;99.90;;;;;;8364823;28;20267;-65
2021/03/20 02:31:50;;;;;;;16.45;8.77;;;-3.40;99.90;;;;;;8364639;28;20091;-66
2021/03/20 02:36:29;;;;;;;16.30;8.23;;;-3.70;99.90;;;;;;8346179;28;20406;-65
2021/03/20 02:40:35;;;;;;;16.30;9.00;;;-3.70;99.90;;;;;;8265708;28;20106;-66
2021/03/20 02:44:56;;;;;;;19.27;9.50;;;-3.70;99.90;;;;;;8364395;28;20025;-66
2021/03/20 02:49:20;;;;;;;17.52;9.55;;;-3.60;99.90;;;;;;8363874;28;20104;-66
2021/03/20 02:53:27;;;;;;;20.15;9.63;;;-3.90;99.90;;;;;;8362590;28;20033;-66
2021/03/20 02:57:35;;;;;;;22.02;9.77;;;-4.10;99.90;;;;;;8345219;28;20219;-65
2021/03/20 03:01:38;;;;;;;18.20;8.75;;;-3.80;99.90;;;;;;8346255;28;20025;-65
2021/03/20 03:05:45;;;;;;;18.38;8.25;;;-3.40;99.90;;;;;;8344590;28;20391;-65
2021/03/20 03:09:55;;;;;;;15.05;7.07;;;-3.20;99.90;;;;;;8345404;28;20091;-65
2021/03/20 03:14:08;;;;;;;6.75;3.72;;;-3.20;99.90;;;;;;8362840;28;20036;-65
2021/03/20 03:18:36;;;;;;;8.65;4.38;;;-3.30;99.90;;;;;;8363006;28;20079;-65
2021/03/20 03:22:58;;;;;;;18.48;9.48;;;-3.40;99.90;;;;;;8344963;28;20032;-65
2021/03/20 03:27:08;;;;;;;16.58;7.90;;;-3.50;99.90;;;;;;8363049;28;20029;-65
2021/03/20 03:31:15;;;;;;;19.60;9.55;;;-3.90;99.90;;;;;;8362786;28;20036;-65
2021/03/20 03:35:47;;;;;;;20.23;9.80;;;-4.00;99.90;;;;;;8344433;28;20033;-65
2021/03/20 03:40:01;;;;;;;14.13;6.95;;;-4.00;99.90;;;;;;8332037;28;20041;-65
2021/03/20 03:44:03;;;;;;;7.35;3.65;;;-3.80;99.90;;;;;;8362326;28;20104;-65
2021/03/20 03:48:05;;;;;;;16.95;8.60;;;-3.60;99.90;;;;;;8344148;28;20558;-65
2021/03/20 03:52:06;;;;;;;18.77;9.32;;;-3.60;99.90;;;;;;8362229;28;20514;-65
2021/03/20 03:56:24;;;;;;;17.27;9.52;;;-3.90;99.90;;;;;;8361562;28;20033;-65
2021/03/20 04:00:43;;;;;;;19.25;9.13;;;-4.10;99.90;;;;;;8362079;28;20024;-65
2021/03/20 04:05:22;;;;;;;14.65;7.15;;;-3.80;99.90;;;;;;8361795;28;20031;-65
2021/03/20 04:09:49;;;;;;;22.15;10.63;;;-3.70;99.90;;;;;;8361280;28;20076;-65
2021/03/20 04:14:12;;;;;;;23.05;10.27;;;-3.50;99.90;;;;;;8354221;28;20417;-65
2021/03/20 04:18:42;;;;;;;18.45;8.90;;;-3.50;99.90;;;;;;8361721;28;20438;-65
2021/03/20 04:22:53;;;;;;;16.55;8.10;;;-3.70;99.90;;;;;;8343334;28;20027;-65
2021/03/20 04:27:09;;;;;;;18.92;8.10;;;-3.40;99.90;;;;;;8361336;28;20060;-65
2021/03/20 04:31:17;;;;;;;13.27;7.38;;;-2.90;99.90;;;;;;8361276;28;20483;-65
2021/03/20 04:35:22;;;;;;;7.65;3.38;;;-2.80;99.90;;;;;;8342467;28;20025;-65
2021/03/20 04:39:26;;;;;;;20.63;9.07;;;-2.80;99.90;;;;;;8361045;28;20036;-65
2021/03/20 04:43:30;;;;;;;9.27;4.95;;;-2.80;99.90;;;;;;8360651;28;20410;-65
2021/03/20 04:47:36;;;;;;;17.23;8.82;;;-2.70;99.90;;;;;;8360602;28;20025;-65
2021/03/20 04:51:45;;;;;;;21.17;9.88;;;-2.60;99.90;;;;;;8360440;28;20024;-65
2021/03/20 04:55:47;;;;;;;17.93;9.80;;;-2.80;99.90;;;;;;8342267;28;20028;-65
2021/03/20 04:59:55;;;;;;;18.73;9.98;;;-2.90;99.90;;;;;;8360574;28;20045;-64
2021/03/20 05:04:02;;;;;;;19.75;9.63;;;-3.00;99.90;;;;;;8360578;28;20455;-65
2021/03/20 05:08:32;;;;;;;24.05;9.82;;;-3.00;99.90;;;;;;8360181;28;20024;-64
2021/03/20 05:12:33;;;;;;;19.67;9.68;;;-2.80;99.90;;;;;;8333552;28;20033;-65
2021/03/20 05:16:47;;;;;;;14.43;8.10;;;-2.70;99.90;;;;;;8344292;28;20037;-65
2021/03/20 05:20:48;;;;;;;18.23;9.93;;;-2.70;99.90;;;;;;8332120;28;20032;-65
2021/03/20 05:24:50;;;;;;;18.70;9.20;;;-2.70;99.90;;;;;;8341602;28;20430;-65
2021/03/20 05:28:51;;;;;;;21.67;10.55;;;-2.70;99.90;;;;;;8327812;28;20455;-65
2021/03/20 05:32:51;;;;;;;17.73;9.18;;;-2.40;99.90;;;;;;8325382;28;20041;-65
2021/03/20 05:36:53;;;;;;;16.83;9.25;;;-2.60;99.90;;;;;;8325406;28;20083;-65
2021/03/20 05:41:20;;;;;;;17.63;8.50;;;-2.40;99.90;;;;;;8325111;28;20034;-65
2021/03/20 05:45:40;;;;;;;15.75;8.30;;;-2.40;99.90;;;;;;8324805;28;20033;-65
2021/03/20 05:50:10;;;;;;;14.45;7.85;;;-2.40;99.90;;;;;;8323028;28;20040;-65
2021/03/20 05:54:29;;;;;;;12.15;6.90;;;-2.20;99.90;;;;;;8305520;28;20376;-65
2021/03/20 05:59:17;;;;;;;12.57;6.55;;;-2.00;99.90;;;;;;8320739;22;20119;-69
2021/03/20 06:03:32;;;;;;;11.88;6.35;;;-1.90;99.90;;;;;;8292975;28;20377;-69
2021/03/20 06:08:04;;;;;;;13.25;6.30;;;-1.70;99.90;;;;;;8286228;28;20507;-69
2021/03/20 06:12:11;;;;;;;9.88;5.82;;;-1.50;99.90;;;;;;8258138;28;20033;-69
2021/03/20 06:16:28;;;;;;;9.15;5.65;;;-1.20;99.90;;;;;;8240376;28;20496;-69
2021/03/20 06:20:43;;;;;;;10.35;5.32;;;-0.90;99.90;;;;;;8247203;28;20026;-70
2021/03/20 06:25:11;;;;;;;8.65;4.75;;;-0.60;99.90;;;;;;8264711;28;20065;-69
2021/03/20 06:29:21;;;;;;;8.63;4.82;;;-0.50;99.90;;;;;;8259168;28;20104;-69
2021/03/20 06:33:43;;;;;;;10.40;4.72;;;-0.60;99.90;;;;;;8262614;28;20392;-69
2021/03/20 06:37:52;;;;;;;7.05;4.60;;;-0.70;99.90;;;;;;8244293;28;20054;-69
2021/03/20 06:42:18;;;;;;;7.85;4.90;;;-0.80;99.90;;;;;;8266985;28;20448;-70
2021/03/20 06:46:26;;;;;;;8.07;5.07;;;-0.40;99.90;;;;;;8249335;28;20061;-69
2021/03/20 06:50:49;;;;;;;7.50;4.75;;;-0.20;99.90;;;;;;8248853;28;20061;-69
2021/03/20 06:55:14;;;;;;;8.50;5.50;;;0.00;99.90;;;;;;8248768;28;20033;-69
2021/03/20 06:59:14;;;;;;;7.82;5.20;;;0.00;99.90;;;;;;8255048;28;20501;-69
2021/03/20 07:03:30;;;;;;;7.80;5.00;;;0.30;99.90;;;;;;8265423;28;20041;-69
2021/03/20 07:07:40;;;;;;;9.10;5.40;;;0.70;99.90;;;;;;8263658;28;20032;-69
2021/03/20 07:12:07;;;;;;;8.80;5.63;;;0.70;99.90;;;;;;8265278;28;20461;-70
2021/03/20 07:16:11;;;;;;;8.05;5.47;;;0.60;99.90;;;;;;8264277;28;20022;-69
2021/03/20 07:20:12;;;;;;;7.72;5.00;;;0.70;99.90;;;;;;8252654;28;20031;-69
2021/03/20 07:24:21;;;;;;;8.38;5.07;;;1.00;99.90;;;;;;8265341;28;20030;-69
2021/03/20 07:28:24;;;;;;;7.20;4.53;;;1.00;99.90;;;;;;8264468;28;20033;-69
2021/03/20 07:32:25;;;;;;;7.93;5.07;;;1.60;99.90;;;;;;8246659;28;20251;-69
2021/03/20 07:36:33;;;;;;;7.82;4.32;;;1.90;99.90;;;;;;8242670;28;20034;-69
2021/03/20 07:40:34;;;;;;;8.35;4.45;;;1.30;99.90;;;;;;8263753;28;20023;-69
2021/03/20 07:44:56;;;;;;;6.70;4.82;;;0.70;99.90;;;;;;8262135;28;20484;-69
2021/03/20 07:49:06;;;;;;;8.43;5.03;;;0.50;99.90;;;;;;8263487;28;20034;-69
2021/03/20 07:53:14;;;;;;;7.70;5.40;;;1.20;99.90;;;;;;8238523;28;20085;-70
2021/03/20 07:57:17;;;;;;;8.85;5.13;;;2.20;99.90;;;;;;8265188;28;20068;-70
2021/03/20 08:01:21;;;;;;;8.23;4.47;;;2.90;99.90;;;;;;8267889;28;20022;-69
2021/03/20 08:05:24;;;;;;;5.95;4.53;;;4.20;99.90;;;;;;8252762;28;20488;-68
2021/03/20 08:09:27;;;;;;;6.80;4.57;;;5.20;99.90;;;;;;8263998;28;20027;-73
2021/03/20 08:13:46;;;;;;;5.07;4.15;;;5.40;99.90;;;;;;8263939;28;20038;-73
2021/03/20 08:17:47;;;;;;;6.72;4.28;;;4.30;99.90;;;;;;8261314;28;20022;-72
2021/03/20 08:22:21;;;;;;;6.30;4.50;;;3.00;99.90;;;;;;8273754;28;20032;-72
2021/03/20 08:26:27;;;;;;;6.72;4.47;;;2.00;99.90;;;;;;8282408;28;20033;-72
2021/03/20 08:30:52;;;;;;;6.82;3.53;;;2.00;99.90;;;;;;8247317;28;20033;-72
2021/03/20 08:34:59;;;;;;;5.50;4.20;;;2.30;99.90;;;;;;8292277;28;20024;-73
2021/03/20 08:39:06;;;;;;;5.47;4.15;;;2.50;99.90;;;;;;8265469;28;20038;-72
2021/03/20 08:43:48;;;;;;;5.75;3.67;;;2.40;99.90;;;;;;8249158;28;20038;-73
2021/03/20 08:47:51;;;;;;;5.28;3.70;;;2.30;99.90;;;;;;8260817;28;20034;-74
2021/03/20 08:52:21;;;;;;;6.43;3.40;;;2.70;99.90;;;;;;8267210;28;20519;-73
2021/03/20 08:56:30;;;;;;;4.15;3.30;;;2.90;99.90;;;;;;8260748;28;20019;-73
2021/03/20 09:00:54;;;;;;;5.20;3.30;;;3.00;99.90;;;;;;8264254;28;20064;-73
2021/03/20 09:04:59;;;;;;;4.70;3.13;;;3.10;99.90;;;;;;8263789;28;20030;-67
2021/03/20 09:09:12;;;;;;;491.92;445.00;;;3.10;99.90;;;;;;8264763;28;20084;-67
2021/03/20 09:13:22;;;;;;;4.32;3.53;;;2.80;99.90;;;;;;8243680;28;20022;-67
2021/03/20 09:17:30;;;;;;;5.75;3.65;;;2.80;99.90;;;;;;8261353;28;20026;-67
2021/03/20 09:21:32;;;;;;;5.35;3.22;;;3.10;99.90;;;;;;8257990;28;20069;-67
2021/03/20 09:25:40;;;;;;;551.30;491.92;;;3.60;99.90;;;;;;8241914;28;20027;-67
2021/03/20 09:30:17;;;;;;;4.65;3.05;;;4.20;99.90;;;;;;8261238;28;20105;-67
2021/03/20 09:34:26;;;;;;;3.88;2.78;;;3.80;99.60;;;;;;8260739;28;20030;-67
2021/03/20 09:38:35;;;;;;;1.63;1.08;;;3.10;96.00;;;;;;8260733;28;20023;-66
2021/03/20 09:42:36;;;;;;;5.00;1.90;;;1.90;95.60;;;;;;8241408;28;20125;-67
2021/03/20 09:46:40;;;;;;;3.58;2.40;;;1.80;99.50;;;;;;8262576;28;20053;-67
2021/03/20 09:50:40;;;;;;;4.07;2.42;;;2.30;98.70;;;;;;8272276;28;20056;-67
2021/03/20 09:54:45;;;;;;;3.60;2.28;;;2.70;98.30;;;;;;8247084;28;20023;-66
2021/03/20 09:58:45;;;;;;;3.38;2.45;;;3.60;98.60;;;;;;8242460;28;20562;-67
2021/03/20 10:02:53;;;;;;;3.20;2.60;;;4.80;96.30;;;;;;8260521;28;20034;-67
2021/03/20 10:07:15;;;;;;;3.65;2.55;;;5.50;95.80;;;;;;8232305;28;20030;-67
2021/03/20 10:11:38;;;;;;;4.93;2.75;;;5.90;91.50;;;;;;8246198;28;20042;-67
2021/03/20 10:15:55;;;;;;;4.15;2.50;;;6.10;91.30;;;;;;8230642;28;20023;-67
2021/03/20 10:20:15;;;;;;;3.42;2.30;;;7.20;87.60;;;;;;8248291;28;20030;-66
2021/03/20 10:24:24;;;;;;;5.32;3.15;;;7.90;82.00;;;;;;8248364;28;20023;-66
2021/03/20 10:28:31;;;;;;;2.72;2.40;;;7.50;79.40;;;;;;8245173;28;20401;-66
2021/03/20 10:32:32;;;;;;;3.38;1.92;;;7.30;78.10;;;;;;8235517;28;20477;-66
2021/03/20 10:36:44;;;;;;;2.70;2.40;;;7.50;74.50;;;;;;8231863;28;20035;-66
2021/03/20 10:40:55;;;;;;;4.28;3.25;;;7.90;73.50;;;;;;8240731;28;20038;-66
2021/03/20 10:45:03;;;;;;;2.13;1.65;;;7.30;78.90;;;;;;8279527;28;20050;-66
2021/03/20 10:49:21;;;;;;;3.15;2.35;;;5.30;80.10;;;;;;8269375;28;20026;-66
2021/03/20 10:53:26;;;;;;;3.70;2.83;;;3.10;87.20;;;;;;8252029;28;20030;-66
2021/03/20 10:57:30;;;;;;;4.32;2.72;;;1.90;94.70;;;;;;8256467;28;20093;-66
2021/03/20 11:01:33;;;;;;;5.53;2.10;;;3.00;92.20;;;;;;8250540;28;20053;-66
2021/03/20 11:05:35;;;;;;;2.30;1.90;;;5.80;83.80;;;;;;8246105;28;20030;-66
2021/03/20 11:09:35;;;;;;;3.10;2.10;;;5.90;71.60;;;;;;8238936;28;20031;-67
2021/03/20 11:13:54;;;;;;;4.22;2.17;;;5.90;93.10;;;;;;8234261;28;20030;-67
2021/03/20 11:17:57;;;;;;;2.80;2.03;;;11.40;85.80;;;;;;8227311;28;20054;-67
2021/03/20 11:22:14;;;;;;;4.85;2.30;;;14.90;50.80;;;;;;8225314;28;20027;-67
2021/03/20 11:26:29;;;;;;;3.65;2.67;;;15.30;52.50;;;;;;8225372;28;20042;-68
2021/03/20 11:30:39;;;;;;;3.40;2.40;;;16.30;54.00;;;;;;8221262;28;20023;-67
2021/03/20 11:34:41;;;;;;;4.55;2.13;;;;;;;;;;8238060;28;20517;-67
2021/03/20 11:38:42;;;;;;;3.08;2.20;;;5.70;74.90;;;;;;8234369;28;20072;-67
2021/03/20 11:42:43;;;;;;;2.80;2.03;;;3.90;70.90;;;;;;8254821;28;20358;-67
2021/03/20 11:46:51;;;;;;;3.50;2.28;;;6.50;92.40;;;;;;8250500;28;20034;-67
2021/03/20 11:50:56;;;;;;;3.10;2.05;;;10.90;59.30;;;;;;8232663;28;20414;-67
2021/03/20 11:55:05;;;;;;;2.53;1.92;;;11.00;55.70;;;;;;8264950;28;20029;-68
2021/03/20 11:59:34;;;;;;;2.90;1.92;;;15.50;48.60;;;;;;8300510;23;20045;-65
2021/03/20 12:03:38;;;;;;;2.53;1.80;;;16.20;47.30;;;;;;8323954;28;20029;-65
2021/03/20 12:07:39;;;;;;;5.20;1.70;;;13.00;38.90;;;;;;8315458;28;20033;-66
2021/03/20 12:11:46;;;;;;;2.45;1.60;;;14.20;44.10;;;;;;8318275;28;20385;-65
2021/03/20 12:15:53;;;;;;;4.40;2.08;;;16.30;38.70;;;;;;8318685;28;20095;-67
2021/03/20 12:20:26;;;;;;;3.40;2.50;;;12.60;43.50;;;;;;8308352;28;20021;-64
2021/03/20 12:24:47;;;;;;;3.20;2.53;;;8.90;55.90;;;;;;8303767;28;20036;-64
2021/03/20 12:28:47;;;;;;;3.45;2.25;;;8.90;57.70;;;;;;8321457;28;20055;-65
2021/03/20 12:32:50;;;;;;;2.90;1.90;;;14.90;44.30;;;;;;8301117;28;20047;-65
2021/03/20 12:36:52;;;;;;;2.83;2.00;;;18.70;35.60;;;;;;8298275;28;20025;-64
2021/03/20 12:41:02;;;;;;;2.75;2.17;;;19.80;34.60;;;;;;8305705;28;20022;-64
2021/03/20 12:45:06;;;;;;;1.80;1.70;;;18.70;34.10;;;;;;8303330;28;20030;-63
2021/03/20 12:49:07;;;;;;;2.53;2.03;;;16.00;38.10;;;;;;8285190;28;20025;-63
2021/03/20 12:53:08;;;;;;;2.97;2.10;;;16.10;38.90;;;;;;8305817;28;20434;-63
2021/03/20 12:57:28;;;;;;;2.28;2.00;;;12.30;41.90;;;;;;8289627;28;20397;-65
2021/03/20 13:01:29;;;;;;;2.67;2.13;;;14.80;42.30;;;;;;8290788;28;20037;-66
2021/03/20 13:05:38;;;;;;;2.42;2.22;;;19.40;34.60;;;;;;8296278;28;20037;-66
2021/03/20 13:09:39;;;;;;;2.25;2.05;;;20.80;30.70;;;;;;8300022;28;20045;-67
2021/03/20 13:13:40;;;;;;;3.85;2.20;;;18.80;33.80;;;;;;8310491;28;20030;-66
2021/03/20 13:17:40;;;;;;;2.35;1.90;;;15.80;36.20;;;;;;8306865;28;20049;-66
2021/03/20 13:21:41;;;;;;;2.35;2.05;;;17.60;36.20;;;;;;8284415;28;20477;-66
2021/03/20 13:25:43;;;;;;;2.47;2.10;;;20.50;32.60;;;;;;8298831;28;20048;-66
2021/03/20 13:29:43;;;;;;;2.30;2.10;;;20.90;32.70;;;;;;8278485;28;20160;-67
2021/03/20 13:33:44;;;;;;;2.65;1.98;;;20.70;30.60;;;;;;8319549;28;20026;-66
2021/03/20 13:37:44;;;;;;;2.22;1.90;;;17.40;33.00;;;;;;8316237;28;20083;-66
2021/03/20 13:41:45;;;;;;;2.67;2.22;;;17.30;35.00;;;;;;8307028;28;20036;-66
2021/03/20 13:45:46;;;;;;;2.55;2.10;;;17.70;32.80;;;;;;8315721;28;20025;-66
2021/03/20 13:49:47;;;;;;;2.35;1.80;;;19.00;34.50;;;;;;8331041;28;20135;-66
2021/03/20 13:53:47;;;;;;;2.55;1.80;;;19.30;32.60;;;;;;8305608;28;20014;-66
2021/03/20 13:57:48;;;;;;;2.00;1.83;;;18.60;33.70;;;;;;8331825;28;20400;-66
2021/03/20 14:01:48;;;;;;;2.25;2.05;;;20.20;29.50;;;;;;8331871;28;20573;-66
2021/03/20 14:05:49;;;;;;;2.83;1.95;;;17.20;32.80;;;;;;8331256;28;20160;-66
2021/03/20 14:09:50;;;;;;;2.55;2.17;;;14.60;35.20;;;;;;8323166;28;20022;-67
2021/03/20 14:13:51;;;;;;;2.15;1.95;;;14.50;36.40;;;;;;8314510;28;20060;-67
2021/03/20 14:17:51;;;;;;;2.45;2.00;;;13.20;39.40;;;;;;8326794;28;20079;-67
2021/03/20 14:21:52;;;;;;;3.42;2.45;;;14.90;39.00;;;;;;8318819;28;20061;-67
2021/03/20 14:25:54;;;;;;;2.15;1.85;;;14.60;36.60;;;;;;8310115;28;20141;-67
2021/03/20 14:29:54;;;;;;;2.42;1.55;;;13.50;42.60;;;;;;8329757;28;20044;-67
2021/03/20 14:33:55;;;;;;;2.85;2.05;;;13.50;40.10;;;;;;8327754;28;20033;-67
2021/03/20 14:37:56;;;;;;;3.88;2.10;;;11.40;41.50;;;;;;8306364;28;20026;-67
2021/03/20 14:41:56;;;;;;;2.85;1.75;;;9.30;46.80;;;;;;8316127;28;20108;-67
2021/03/20 14:45:57;;;;;;;2.30;1.80;;;8.10;49.40;;;;;;8309602;28;20025;-67
2021/03/20 14:49:58;;;;;;;2.67;1.80;;;7.70;49.90;;;;;;8327939;28;20030;-67
2021/03/20 14:53:58;;;;;;;5.03;2.03;;;7.30;51.60;;;;;;8306318;28;20026;-66
2021/03/20 14:57:59;;;;;;;3.00;1.90;;;6.90;52.40;;;;;;8308033;28;20029;-67
2021/03/20 15:01:59;;;;;;;2.40;2.00;;;7.30;50.90;;;;;;8282419;28;20064;-67
2021/03/20 15:06:01;;;;;;;2.30;1.80;;;11.70;46.40;;;;;;8297270;28;20021;-66
2021/03/20 15:10:09;;;;;;;2.50;1.90;;;15.20;39.50;;;;;;8308436;28;20060;-66
2021/03/20 15:14:09;;;;;;;3.67;1.90;;;17.10;36.70;;;;;;8306623;28;20033;-67
2021/03/20 15:18:18;;;;;;;5.90;4.00;;;18.20;35.90;;;;;;8298452;28;20029;-66
2021/03/20 15:22:19;;;;;;;2.50;2.00;;;19.90;31.10;;;;;;8292019;28;20034;-66
2021/03/20 15:26:23;;;;;;;3.10;2.08;;;20.80;31.00;;;;;;8272305;28;20044;-66
2021/03/20 15:30:31;;;;;;;3.42;2.85;;;20.40;29.70;;;;;;8286454;28;20025;-66
2021/03/20 15:34:32;;;;;;;2.38;2.10;;;18.70;31.10;;;;;;8271211;28;20029;-67
2021/03/20 15:38:32;;;;;;;5.13;2.00;;;18.20;32.30;;;;;;8286678;28;20097;-66
2021/03/20 15:42:34;;;;;;;3.03;2.08;;;19.50;32.90;;;;;;8287640;28;20812;-66
2021/03/20 15:46:34;;;;;;;4.60;2.10;;;20.80;30.70;;;;;;8295555;28;20466;-66
2021/03/20 15:50:49;;;;;;;3.03;2.30;;;20.00;30.40;;;;;;8303714;28;20061;-65
2021/03/20 15:54:50;;;;;;;2.97;1.95;;;16.40;32.90;;;;;;8294832;28;20104;-64
2021/03/20 15:58:51;;;;;;;2.17;1.90;;;13.10;39.70;;;;;;8297064;28;20064;-66
2021/03/20 16:02:51;;;;;;;3.35;2.08;;;10.90;42.90;;;;;;8296198;28;20038;-66
2021/03/20 16:06:52;;;;;;;3.10;2.10;;;9.10;46.30;;;;;;8284962;28;20026;-64
2021/03/20 16:10:54;;;;;;;3.33;1.85;;;8.80;49.20;;;;;;8285880;28;20026;-65
2021/03/20 16:14:55;;;;;;;2.60;2.00;;;8.00;49.70;;;;;;8295559;28;20097;-65
2021/03/20 16:18:55;;;;;;;2.63;1.80;;;8.40;50.00;;;;;;8296884;28;20061;-65
2021/03/20 16:22:58;;;;;;;3.17;1.45;;;8.20;50.70;;;;;;8309895;28;20033;-66
2021/03/20 16:26:58;;;;;;;3.40;1.70;;;7.70;52.30;;;;;;8301008;28;20459;-65
2021/03/20 16:31:01;;;;;;;2.40;1.67;;;9.30;48.60;;;;;;8299835;28;20124;-66
2021/03/20 16:35:02;;;;;;;3.08;2.15;;;8.90;50.10;;;;;;8281060;28;20104;-64
2021/03/20 16:39:03;;;;;;;2.30;1.73;;;7.90;51.10;;;;;;8299433;28;20045;-65
2021/03/20 16:43:05;;;;;;;4.60;1.90;;;6.40;54.90;;;;;;8291023;28;20037;-66
2021/03/20 16:47:06;;;;;;;2.70;1.90;;;5.70;60.30;;;;;;8292811;28;20032;-65
2021/03/20 16:51:10;;;;;;;3.15;2.17;;;5.40;61.70;;;;;;8279187;28;20105;-66
2021/03/20 16:55:11;;;;;;;2.92;1.80;;;5.60;59.40;;;;;;8279555;28;20022;-65
2021/03/20 16:59:11;;;;;;;3.72;2.03;;;5.20;59.60;;;;;;8283526;28;20153;-65
2021/03/20 17:03:13;;;;;;;2.85;1.80;;;5.30;61.10;;;;;;8279499;28;20026;-65
2021/03/20 17:07:13;;;;;;;4.97;2.05;;;5.00;59.00;;;;;;8282043;28;20484;-64
2021/03/20 17:11:14;;;;;;;3.42;1.90;;;4.60;61.40;;;;;;8282924;28;20045;-66
2021/03/20 17:15:15;;;;;;;3.67;2.08;;;4.20;64.60;;;;;;8282365;28;20025;-64
2021/03/20 17:19:16;;;;;;;3.70;2.03;;;3.80;66.40;;;;;;8281251;28;20048;-64
2021/03/20 17:23:18;;;;;;;4.20;2.72;;;3.30;73.40;;;;;;8287143;28;20037;-64
2021/03/20 17:27:19;;;;;;;2.80;2.03;;;3.10;68.90;;;;;;8271947;28;20026;-65
2021/03/20 17:31:19;;;;;;;3.00;2.42;;;2.90;73.40;;;;;;8287062;28;20033;-64
2021/03/20 17:35:20;;;;;;;7.35;3.50;;;2.60;75.00;;;;;;8308154;28;20482;-65
2021/03/20 17:39:20;;;;;;;13.50;4.57;;;2.50;76.30;;;;;;8305716;28;20029;-65
2021/03/20 17:43:21;;;;;;;7.55;3.55;;;2.30;75.20;;;;;;8306229;28;20029;-65
2021/03/20 17:47:22;;;;;;;6.47;3.40;;;2.10;77.70;;;;;;8304947;28;20471;-64
2021/03/20 17:51:22;;;;;;;11.73;4.57;;;1.90;79.80;;;;;;8311052;28;20033;-66
2021/03/20 17:55:23;;;;;;;11.05;5.60;;;1.70;78.30;;;;;;8316821;28;20514;-65
2021/03/20 17:59:24;;;;;;;11.45;6.57;;;1.40;76.60;;;;;;8304276;28;20064;-65
2021/03/20 18:03:25;;;;;;;12.40;5.90;;;1.50;76.10;;;;;;8314739;28;20113;-66
2021/03/20 18:07:25;;;;;;;15.85;8.43;;;1.30;76.00;;;;;;8317679;28;20543;-66
2021/03/20 18:11:26;;;;;;;17.08;10.07;;;1.40;77.30;;;;;;8320972;28;20031;-66
2021/03/20 18:15:27;;;;;;;8.20;4.93;;;1.10;77.00;;;;;;8298739;28;20037;-66
2021/03/20 18:19:27;;;;;;;6.07;4.70;;;1.00;77.50;;;;;;8313208;28;20030;-66
2021/03/20 18:23:28;;;;;;;8.65;5.28;;;0.90;78.50;;;;;;8309419;28;20040;-66
2021/03/20 18:27:28;;;;;;;8.75;4.78;;;0.90;84.40;;;;;;8309734;28;20018;-66
2021/03/20 18:31:29;;;;;;;8.18;5.05;;;1.00;87.40;;;;;;8290665;28;20030;-66
2021/03/20 18:35:30;;;;;;;9.38;4.53;;;1.00;90.40;;;;;;8309464;28;20096;-66
2021/03/20 18:39:31;;;;;;;9.65;5.53;;;1.10;90.50;;;;;;8317045;28;20040;-66
2021/03/20 18:43:34;;;;;;;11.00;6.35;;;1.00;89.70;;;;;;8293384;28;20460;-66
2021/03/20 18:47:35;;;;;;;11.93;6.65;;;0.80;90.00;;;;;;8296110;28;20029;-66
2021/03/20 18:51:35;;;;;;;10.70;6.05;;;0.80;91.70;;;;;;8314647;28;20396;-66
2021/03/20 18:55:38;;;;;;;11.60;6.13;;;0.60;91.20;;;;;;8334755;28;20083;-66
2021/03/20 18:59:39;;;;;;;10.70;5.45;;;0.60;91.20;;;;;;8327671;28;20025;-66
2021/03/20 19:03:39;;;;;;;13.70;7.93;;;0.90;91.40;;;;;;8327229;28;20033;-66
2021/03/20 19:07:41;;;;;;;8.98;5.93;;;0.80;95.20;;;;;;8330411;28;20036;-66
2021/03/20 19:11:41;;;;;;;6.10;3.47;;;0.90;96.70;;;;;;8326716;28;20021;-65
2021/03/20 19:15:42;;;;;;;5.32;3.15;;;0.80;95.30;;;;;;8326367;28;20092;-65
2021/03/20 19:19:42;;;;;;;6.72;3.63;;;0.90;94.80;;;;;;8308081;28;20025;-66
2021/03/20 19:23:43;;;;;;;7.57;3.78;;;1.00;96.50;;;;;;8325942;28;20025;-66
2021/03/20 19:27:44;;;;;;;6.72;4.03;;;1.00;96.90;;;;;;8320559;28;20113;-67
2021/03/20 19:31:44;;;;;;;29.67;14.45;;;0.70;96.20;;;;;;8330145;28;20159;-66
2021/03/20 19:35:45;;;;;;;19.67;9.52;;;0.80;97.20;;;;;;8325102;28;20606;-66
2021/03/20 19:39:46;;;;;;;15.02;6.85;;;0.70;98.40;;;;;;8311135;28;20025;-66
2021/03/20 19:43:46;;;;;;;10.75;6.15;;;0.70;99.90;;;;;;8331721;28;20107;-66
2021/03/20 19:47:47;;;;;;;11.63;6.07;;;0.80;99.90;;;;;;8304533;28;20742;-66
2021/03/20 19:51:51;;;;;;;17.35;8.68;;;0.80;99.90;;;;;;8306309;28;20021;-66
2021/03/20 19:55:53;;;;;;;10.05;6.80;;;0.60;99.90;;;;;;8322645;28;20599;-66
2021/03/20 19:59:54;;;;;;;12.35;6.32;;;0.80;99.90;;;;;;8322430;28;20033;-66
2021/03/20 20:03:55;;;;;;;13.73;7.72;;;0.80;99.90;;;;;;8304575;28;20108;-66
2021/03/20 20:07:56;;;;;;;12.77;6.88;;;0.90;99.90;;;;;;8305059;28;20022;-66
2021/03/20 20:11:57;;;;;;;6.70;4.20;;;0.70;99.90;;;;;;8300623;28;20038;-66
2021/03/20 20:15:58;;;;;;;6.22;4.25;;;0.60;99.90;;;;;;8322154;28;20026;-66
2021/03/20 20:19:59;;;;;;;7.60;3.95;;;0.50;99.90;;;;;;8324065;28;20014;-66
2021/03/20 20:24:00;;;;;;;8.73;4.60;;;0.30;99.90;;;;;;8323626;28;20029;-66
2021/03/20 20:28:07;;;;;;;9.68;5.30;;;0.50;99.90;;;;;;8321218;28;20029;-66
2021/03/20 20:32:09;;;;;;;15.50;8.50;;;0.50;99.90;;;;;;8320645;28;20487;-66
2021/03/20 20:36:10;;;;;;;32.70;14.30;;;0.60;99.90;;;;;;8301961;28;20610;-66
2021/03/20 20:40:12;;;;;;;32.40;14.70;;;0.60;99.90;;;;;;8321040;28;20151;-66
2021/03/20 20:44:17;;;;;;;13.30;6.60;;;0.50;99.90;;;;;;8321301;28;20022;-66
2021/03/20 20:48:17;;;;;;;15.75;7.63;;;0.50;99.90;;;;;;8304720;28;20026;-66
2021/03/20 20:52:18;;;;;;;6.10;4.38;;;0.70;99.90;;;;;;8305637;28;20018;-66
2021/03/20 20:56:19;;;;;;;6.05;4.10;;;0.70;99.90;;;;;;8322934;28;20101;-66
2021/03/20 21:00:26;;;;;;;6.45;3.83;;;0.70;99.90;;;;;;8333013;28;20040;-66
2021/03/20 21:04:27;;;;;;;8.88;4.22;;;0.70;99.90;;;;;;8328518;28;20400;-66
2021/03/20 21:08:27;;;;;;;8.18;4.95;;;0.60;99.90;;;;;;8320387;28;20063;-66
2021/03/20 21:12:28;;;;;;;6.72;4.30;;;0.60;99.90;;;;;;8322814;28;20033;-66
2021/03/20 21:16:29;;;;;;;10.70;5.00;;;0.60;99.90;;;;;;8299057;28;20022;-66
2021/03/20 21:20:36;;;;;;;15.75;7.85;;;0.60;99.90;;;;;;8323463;28;20430;-66
2021/03/20 21:24:37;;;;;;;12.73;6.57;;;0.60;99.90;;;;;;8305669;28;20025;-66